Terminal Aerodrome Forecast
Issued by NWS

Home | Current Version | Previous Version | Text Only | Print | Product List | Glossary On
Versions: 1 2 3 4 5 6 7 8 9 10 11 12 13 14 15 16 17
000
FTUS46 KMTR 252000 AAA
TAFSTS
TAF AMD
KSTS 252003Z 2520/2618 22012G22KT P6SM -SHRA BKN040
      TEMPO 2520/2524 -TSRA BKN025CB
     FM260300 18005KT P6SM BKN050
     FM260900 00000KT 5SM BR OVC010
     FM261200 VRB04KT 1/2SM FG VV003=

USA.gov is the U.S. government's official web portal to all federal, state and local government web resources and services.